sensor_id;sensor_type;location;lat;lon;timestamp;temperature;humidity
18593;DHT22;9426;54.118;17.948;2023-02-15T00:04:30;2.40;99.90
18593;DHT22;9426;54.118;17.948;2023-02-15T00:10:08;2.40;99.90
18593;DHT22;9426;54.118;17.948;2023-02-15T00:15:34;2.30;99.90
18593;DHT22;9426;54.118;17.948;2023-02-15T00:21:02;2.30;99.90
18593;DHT22;9426;54.118;17.948;2023-02-15T00:26:26;2.30;99.90
18593;DHT22;9426;54.118;17.948;2023-02-15T00:31:51;2.30;99.90
18593;DHT22;9426;54.118;17.948;2023-02-15T00:37:18;2.40;99.90
18593;DHT22;9426;54.118;17.948;2023-02-15T00:42:42;2.40;99.90
18593;DHT22;9426;54.118;17.948;2023-02-15T00:48:08;2.40;99.90
18593;DHT22;9426;54.118;17.948;2023-02-15T00:53:32;2.40;99.90
18593;DHT22;9426;54.118;17.948;2023-02-15T00:58:56;2.40;99.90
18593;DHT22;9426;54.118;17.948;2023-02-15T01:04:21;2.50;99.90
18593;DHT22;9426;54.118;17.948;2023-02-15T01:09:46;2.50;99.90
18593;DHT22;9426;54.118;17.948;2023-02-15T01:15:10;2.40;99.90
18593;DHT22;9426;54.118;17.948;2023-02-15T01:20:38;2.50;99.90
18593;DHT22;9426;54.118;17.948;2023-02-15T01:26:04;2.50;99.90
18593;DHT22;9426;54.118;17.948;2023-02-15T01:31:28;2.50;99.90
18593;DHT22;9426;54.118;17.948;2023-02-15T01:36:53;2.50;99.90
18593;DHT22;9426;54.118;17.948;2023-02-15T01:42:21;2.50;99.90
18593;DHT22;9426;54.118;17.948;2023-02-15T01:47:49;2.50;99.90
18593;DHT22;9426;54.118;17.948;2023-02-15T01:53:20;2.50;99.90
18593;DHT22;9426;54.118;17.948;2023-02-15T01:58:50;2.50;99.90
18593;DHT22;9426;54.118;17.948;2023-02-15T02:04:23;2.50;99.90
18593;DHT22;9426;54.118;17.948;2023-02-15T02:09:53;2.50;99.90
18593;DHT22;9426;54.118;17.948;2023-02-15T02:15:26;2.50;99.90
18593;DHT22;9426;54.118;17.948;2023-02-15T02:21:13;2.40;99.90
18593;DHT22;9426;54.118;17.948;2023-02-15T02:39:02;2.40;99.90
18593;DHT22;9426;54.118;17.948;2023-02-15T02:44:40;2.30;99.90
18593;DHT22;9426;54.118;17.948;2023-02-15T02:50:14;2.40;99.90
18593;DHT22;9426;54.118;17.948;2023-02-15T02:55:43;2.20;99.90
18593;DHT22;9426;54.118;17.948;2023-02-15T03:01:14;2.10;99.90
18593;DHT22;9426;54.118;17.948;2023-02-15T03:06:45;2.10;99.90
18593;DHT22;9426;54.118;17.948;2023-02-15T03:12:12;2.10;99.90
18593;DHT22;9426;54.118;17.948;2023-02-15T03:17:42;2.10;99.90
18593;DHT22;9426;54.118;17.948;2023-02-15T03:23:12;2.10;99.90
18593;DHT22;9426;54.118;17.948;2023-02-15T03:28:42;2.10;99.90
18593;DHT22;9426;54.118;17.948;2023-02-15T03:34:08;2.20;99.90
18593;DHT22;9426;54.118;17.948;2023-02-15T03:39:40;2.20;99.90
18593;DHT22;9426;54.118;17.948;2023-02-15T03:45:09;2.20;99.90
18593;DHT22;9426;54.118;17.948;2023-02-15T03:50:35;2.10;99.90
18593;DHT22;9426;54.118;17.948;2023-02-15T03:56:19;2.10;99.90
18593;DHT22;9426;54.118;17.948;2023-02-15T04:01:50;2.20;99.90
18593;DHT22;9426;54.118;17.948;2023-02-15T04:07:22;2.10;99.90
18593;DHT22;9426;54.118;17.948;2023-02-15T04:12:48;2.00;99.90
18593;DHT22;9426;54.118;17.948;2023-02-15T04:18:11;2.00;99.90
18593;DHT22;9426;54.118;17.948;2023-02-15T04:23:35;2.00;99.90
18593;DHT22;9426;54.118;17.948;2023-02-15T04:29:18;2.00;99.90
18593;DHT22;9426;54.118;17.948;2023-02-15T04:34:41;2.00;99.90
18593;DHT22;9426;54.118;17.948;2023-02-15T04:40:07;2.00;99.90
18593;DHT22;9426;54.118;17.948;2023-02-15T04:45:32;2.00;99.90
18593;DHT22;9426;54.118;17.948;2023-02-15T04:50:56;2.00;99.90
18593;DHT22;9426;54.118;17.948;2023-02-15T04:56:20;2.00;99.90
18593;DHT22;9426;54.118;17.948;2023-02-15T05:01:45;2.00;99.90
18593;DHT22;9426;54.118;17.948;2023-02-15T05:07:09;2.10;99.90
18593;DHT22;9426;54.118;17.948;2023-02-15T05:12:33;2.00;99.90
18593;DHT22;9426;54.118;17.948;2023-02-15T05:17:58;2.00;99.90
18593;DHT22;9426;54.118;17.948;2023-02-15T05:23:23;2.00;99.90
18593;DHT22;9426;54.118;17.948;2023-02-15T05:28:49;2.00;99.90
18593;DHT22;9426;54.118;17.948;2023-02-15T05:34:19;2.00;99.90
18593;DHT22;9426;54.118;17.948;2023-02-15T05:39:43;2.10;99.90
18593;DHT22;9426;54.118;17.948;2023-02-15T05:45:07;2.00;99.90
18593;DHT22;9426;54.118;17.948;2023-02-15T05:50:33;1.90;99.90
18593;DHT22;9426;54.118;17.948;2023-02-15T05:55:56;2.00;99.90
18593;DHT22;9426;54.118;17.948;2023-02-15T06:01:22;2.00;99.90
18593;DHT22;9426;54.118;17.948;2023-02-15T06:06:48;2.00;99.90
18593;DHT22;9426;54.118;17.948;2023-02-15T06:12:12;2.00;99.90
18593;DHT22;9426;54.118;17.948;2023-02-15T06:17:35;2.10;99.90
18593;DHT22;9426;54.118;17.948;2023-02-15T06:23:01;2.10;99.90
18593;DHT22;9426;54.118;17.948;2023-02-15T06:28:24;2.10;99.90
18593;DHT22;9426;54.118;17.948;2023-02-15T06:33:48;2.10;99.90
18593;DHT22;9426;54.118;17.948;2023-02-15T06:39:13;2.00;99.90
18593;DHT22;9426;54.118;17.948;2023-02-15T06:44:37;2.00;99.90
18593;DHT22;9426;54.118;17.948;2023-02-15T06:50:01;2.00;99.90
18593;DHT22;9426;54.118;17.948;2023-02-15T06:55:26;2.00;99.90
18593;DHT22;9426;54.118;17.948;2023-02-15T07:00:51;2.10;99.90
18593;DHT22;9426;54.118;17.948;2023-02-15T07:06:15;2.20;99.90
18593;DHT22;9426;54.118;17.948;2023-02-15T07:11:40;2.10;99.90
18593;DHT22;9426;54.118;17.948;2023-02-15T07:17:20;2.20;99.90
18593;DHT22;9426;54.118;17.948;2023-02-15T07:22:59;2.30;99.90
18593;DHT22;9426;54.118;17.948;2023-02-15T07:28:24;2.30;99.90
18593;DHT22;9426;54.118;17.948;2023-02-15T07:33:48;2.30;99.90
18593;DHT22;9426;54.118;17.948;2023-02-15T07:39:12;2.40;99.90
18593;DHT22;9426;54.118;17.948;2023-02-15T07:44:37;2.50;99.90
18593;DHT22;9426;54.118;17.948;2023-02-15T07:50:01;2.60;99.90
18593;DHT22;9426;54.118;17.948;2023-02-15T07:55:25;2.70;99.90
18593;DHT22;9426;54.118;17.948;2023-02-15T08:00:50;2.90;99.90
18593;DHT22;9426;54.118;17.948;2023-02-15T08:06:21;3.00;99.90
18593;DHT22;9426;54.118;17.948;2023-02-15T08:11:47;3.10;99.90
18593;DHT22;9426;54.118;17.948;2023-02-15T08:17:12;3.30;99.90
18593;DHT22;9426;54.118;17.948;2023-02-15T08:22:36;3.40;99.90
18593;DHT22;9426;54.118;17.948;2023-02-15T08:27:59;3.40;99.90
18593;DHT22;9426;54.118;17.948;2023-02-15T08:33:25;3.40;99.90
18593;DHT22;9426;54.118;17.948;2023-02-15T08:38:49;3.30;99.90
18593;DHT22;9426;54.118;17.948;2023-02-15T08:44:14;3.30;99.90
18593;DHT22;9426;54.118;17.948;2023-02-15T08:49:39;3.40;99.90
18593;DHT22;9426;54.118;17.948;2023-02-15T08:55:03;3.40;99.90
18593;DHT22;9426;54.118;17.948;2023-02-15T09:00:26;3.50;99.90
18593;DHT22;9426;54.118;17.948;2023-02-15T09:05:57;3.50;99.90
18593;DHT22;9426;54.118;17.948;2023-02-15T09:11:23;3.70;99.90
18593;DHT22;9426;54.118;17.948;2023-02-15T09:16:47;3.70;99.90
18593;DHT22;9426;54.118;17.948;2023-02-15T09:22:15;3.70;99.90
18593;DHT22;9426;54.118;17.948;2023-02-15T09:27:38;3.70;99.90
18593;DHT22;9426;54.118;17.948;2023-02-15T09:33:02;3.90;99.90
18593;DHT22;9426;54.118;17.948;2023-02-15T09:38:27;3.90;99.90
18593;DHT22;9426;54.118;17.948;2023-02-15T09:43:56;4.00;99.90
18593;DHT22;9426;54.118;17.948;2023-02-15T09:49:26;4.00;99.90
18593;DHT22;9426;54.118;17.948;2023-02-15T09:55:12;3.90;99.90
18593;DHT22;9426;54.118;17.948;2023-02-15T10:00:44;3.90;99.90
18593;DHT22;9426;54.118;17.948;2023-02-15T10:06:22;3.90;99.90
18593;DHT22;9426;54.118;17.948;2023-02-15T10:12:02;4.00;99.90
18593;DHT22;9426;54.118;17.948;2023-02-15T10:17:37;3.90;99.90
18593;DHT22;9426;54.118;17.948;2023-02-15T10:23:22;4.00;99.90
18593;DHT22;9426;54.118;17.948;2023-02-15T10:28:53;4.40;99.90
18593;DHT22;9426;54.118;17.948;2023-02-15T10:34:18;4.60;99.90
18593;DHT22;9426;54.118;17.948;2023-02-15T10:39:49;4.40;99.90
18593;DHT22;9426;54.118;17.948;2023-02-15T10:45:23;4.50;99.90
18593;DHT22;9426;54.118;17.948;2023-02-15T10:50:48;4.40;99.90
18593;DHT22;9426;54.118;17.948;2023-02-15T10:56:19;4.50;99.90
18593;DHT22;9426;54.118;17.948;2023-02-15T11:01:50;4.60;99.90
18593;DHT22;9426;54.118;17.948;2023-02-15T11:07:19;4.50;99.90
18593;DHT22;9426;54.118;17.948;2023-02-15T11:12:45;4.80;99.90
18593;DHT22;9426;54.118;17.948;2023-02-15T11:18:14;5.00;99.90
18593;DHT22;9426;54.118;17.948;2023-02-15T11:23:42;5.20;99.90
18593;DHT22;9426;54.118;17.948;2023-02-15T11:29:11;5.70;99.90
18593;DHT22;9426;54.118;17.948;2023-02-15T11:34:46;6.40;99.90
18593;DHT22;9426;54.118;17.948;2023-02-15T11:40:19;6.90;99.90
18593;DHT22;9426;54.118;17.948;2023-02-15T11:45:45;7.30;99.90
18593;DHT22;9426;54.118;17.948;2023-02-15T11:51:13;6.50;99.90
18593;DHT22;9426;54.118;17.948;2023-02-15T11:56:37;6.30;99.90
18593;DHT22;9426;54.118;17.948;2023-02-15T12:02:01;6.70;99.90
18593;DHT22;9426;54.118;17.948;2023-02-15T12:07:28;7.40;99.90
18593;DHT22;9426;54.118;17.948;2023-02-15T12:13:10;7.40;99.90
18593;DHT22;9426;54.118;17.948;2023-02-15T12:18:38;7.60;99.90
18593;DHT22;9426;54.118;17.948;2023-02-15T12:24:21;7.40;99.90
18593;DHT22;9426;54.118;17.948;2023-02-15T12:29:47;6.90;99.90
18593;DHT22;9426;54.118;17.948;2023-02-15T12:35:15;6.70;99.90
18593;DHT22;9426;54.118;17.948;2023-02-15T12:40:57;6.60;99.90
18593;DHT22;9426;54.118;17.948;2023-02-15T12:46:23;7.20;99.90
18593;DHT22;9426;54.118;17.948;2023-02-15T12:51:49;7.50;99.90
18593;DHT22;9426;54.118;17.948;2023-02-15T12:57:25;7.40;99.90
18593;DHT22;9426;54.118;17.948;2023-02-15T13:02:51;7.40;99.90
18593;DHT22;9426;54.118;17.948;2023-02-15T13:08:17;7.10;99.90
18593;DHT22;9426;54.118;17.948;2023-02-15T13:13:51;7.30;99.90
18593;DHT22;9426;54.118;17.948;2023-02-15T13:19:16;8.00;99.90
18593;DHT22;9426;54.118;17.948;2023-02-15T13:24:43;7.70;99.90
18593;DHT22;9426;54.118;17.948;2023-02-15T13:30:24;7.60;99.90
18593;DHT22;9426;54.118;17.948;2023-02-15T13:35:55;8.00;99.90
18593;DHT22;9426;54.118;17.948;2023-02-15T13:41:27;8.50;99.90
18593;DHT22;9426;54.118;17.948;2023-02-15T13:47:07;8.70;99.90
18593;DHT22;9426;54.118;17.948;2023-02-15T13:52:37;8.80;99.90
18593;DHT22;9426;54.118;17.948;2023-02-15T14:04:31;7.90;99.90
18593;DHT22;9426;54.118;17.948;2023-02-15T14:10:08;7.20;99.90
18593;DHT22;9426;54.118;17.948;2023-02-15T14:15:41;6.80;99.90
18593;DHT22;9426;54.118;17.948;2023-02-15T14:21:13;6.60;99.90
18593;DHT22;9426;54.118;17.948;2023-02-15T14:26:43;6.30;99.90
18593;DHT22;9426;54.118;17.948;2023-02-15T14:32:13;6.10;99.90
18593;DHT22;9426;54.118;17.948;2023-02-15T14:37:45;5.80;99.90
18593;DHT22;9426;54.118;17.948;2023-02-15T14:43:14;5.80;99.90
18593;DHT22;9426;54.118;17.948;2023-02-15T14:48:42;5.70;99.90
18593;DHT22;9426;54.118;17.948;2023-02-15T14:54:10;5.60;99.90
18593;DHT22;9426;54.118;17.948;2023-02-15T14:59:38;5.30;99.90
18593;DHT22;9426;54.118;17.948;2023-02-15T15:05:07;5.10;99.90
18593;DHT22;9426;54.118;17.948;2023-02-15T15:10:43;4.90;99.90
18593;DHT22;9426;54.118;17.948;2023-02-15T15:22:05;4.50;99.90
18593;DHT22;9426;54.118;17.948;2023-02-15T15:27:49;4.20;99.90
18593;DHT22;9426;54.118;17.948;2023-02-15T15:33:35;4.00;99.90
18593;DHT22;9426;54.118;17.948;2023-02-15T15:39:15;3.80;99.90
18593;DHT22;9426;54.118;17.948;2023-02-15T15:45:12;3.60;99.90
18593;DHT22;9426;54.118;17.948;2023-02-15T15:50:45;3.50;99.90
18593;DHT22;9426;54.118;17.948;2023-02-15T15:56:15;3.50;99.90
18593;DHT22;9426;54.118;17.948;2023-02-15T16:01:44;3.40;99.90
18593;DHT22;9426;54.118;17.948;2023-02-15T16:07:23;3.20;99.90
18593;DHT22;9426;54.118;17.948;2023-02-15T16:12:49;3.00;99.90
18593;DHT22;9426;54.118;17.948;2023-02-15T16:18:16;2.60;99.90
18593;DHT22;9426;54.118;17.948;2023-02-15T16:24:01;2.30;99.90
18593;DHT22;9426;54.118;17.948;2023-02-15T16:29:28;2.00;99.90
18593;DHT22;9426;54.118;17.948;2023-02-15T16:34:56;2.10;99.90
18593;DHT22;9426;54.118;17.948;2023-02-15T16:40:42;2.00;99.90
18593;DHT22;9426;54.118;17.948;2023-02-15T16:46:11;1.80;99.90
18593;DHT22;9426;54.118;17.948;2023-02-15T16:51:42;1.40;99.90
18593;DHT22;9426;54.118;17.948;2023-02-15T16:57:16;1.30;99.90
18593;DHT22;9426;54.118;17.948;2023-02-15T17:02:53;1.10;99.90
18593;DHT22;9426;54.118;17.948;2023-02-15T17:08:25;0.90;99.90
18593;DHT22;9426;54.118;17.948;2023-02-15T17:19:50;0.60;99.90
18593;DHT22;9426;54.118;17.948;2023-02-15T17:25:25;0.50;99.90
18593;DHT22;9426;54.118;17.948;2023-02-15T17:30:51;0.40;99.90
18593;DHT22;9426;54.118;17.948;2023-02-15T17:36:17;0.30;99.90
18593;DHT22;9426;54.118;17.948;2023-02-15T17:41:46;0.20;99.90
18593;DHT22;9426;54.118;17.948;2023-02-15T17:47:13;0.20;99.90
18593;DHT22;9426;54.118;17.948;2023-02-15T17:52:38;0.30;99.90
18593;DHT22;9426;54.118;17.948;2023-02-15T17:58:07;0.30;99.90
18593;DHT22;9426;54.118;17.948;2023-02-15T18:03:39;0.70;99.90
18593;DHT22;9426;54.118;17.948;2023-02-15T18:09:23;1.10;99.90
18593;DHT22;9426;54.118;17.948;2023-02-15T18:15:07;1.40;99.90
18593;DHT22;9426;54.118;17.948;2023-02-15T18:20:43;1.60;99.90
18593;DHT22;9426;54.118;17.948;2023-02-15T18:26:11;1.70;99.90
18593;DHT22;9426;54.118;17.948;2023-02-15T18:31:41;1.80;99.90
18593;DHT22;9426;54.118;17.948;2023-02-15T18:37:12;1.90;99.90
18593;DHT22;9426;54.118;17.948;2023-02-15T18:42:36;2.00;99.90
18593;DHT22;9426;54.118;17.948;2023-02-15T18:48:07;2.00;99.90
18593;DHT22;9426;54.118;17.948;2023-02-15T18:53:31;2.10;99.90
18593;DHT22;9426;54.118;17.948;2023-02-15T18:58:55;2.20;99.90
18593;DHT22;9426;54.118;17.948;2023-02-15T19:04:20;2.20;99.90
18593;DHT22;9426;54.118;17.948;2023-02-15T19:09:48;2.20;99.90
18593;DHT22;9426;54.118;17.948;2023-02-15T19:15:16;2.30;99.90
18593;DHT22;9426;54.118;17.948;2023-02-15T19:20:44;2.30;99.90
18593;DHT22;9426;54.118;17.948;2023-02-15T19:26:09;2.30;99.90
18593;DHT22;9426;54.118;17.948;2023-02-15T19:31:33;2.30;99.90
18593;DHT22;9426;54.118;17.948;2023-02-15T19:36:58;2.30;99.90
18593;DHT22;9426;54.118;17.948;2023-02-15T19:42:22;2.40;99.90
18593;DHT22;9426;54.118;17.948;2023-02-15T19:47:46;2.30;99.90
18593;DHT22;9426;54.118;17.948;2023-02-15T19:53:19;2.40;99.90
18593;DHT22;9426;54.118;17.948;2023-02-15T19:58:43;2.40;99.90
18593;DHT22;9426;54.118;17.948;2023-02-15T20:04:08;2.40;99.90
18593;DHT22;9426;54.118;17.948;2023-02-15T20:09:35;2.40;99.90
18593;DHT22;9426;54.118;17.948;2023-02-15T20:15:04;2.40;99.90
18593;DHT22;9426;54.118;17.948;2023-02-15T20:20:44;2.40;99.90
18593;DHT22;9426;54.118;17.948;2023-02-15T20:26:15;2.30;99.90
18593;DHT22;9426;54.118;17.948;2023-02-15T20:31:41;2.30;99.90
18593;DHT22;9426;54.118;17.948;2023-02-15T20:37:08;2.10;99.90
18593;DHT22;9426;54.118;17.948;2023-02-15T20:42:41;2.10;99.90
18593;DHT22;9426;54.118;17.948;2023-02-15T20:48:05;2.10;99.90
18593;DHT22;9426;54.118;17.948;2023-02-15T20:53:29;2.00;99.90
18593;DHT22;9426;54.118;17.948;2023-02-15T20:58:54;2.00;99.90
18593;DHT22;9426;54.118;17.948;2023-02-15T21:04:21;2.00;99.90
18593;DHT22;9426;54.118;17.948;2023-02-15T21:09:48;1.90;99.90
18593;DHT22;9426;54.118;17.948;2023-02-15T21:15:34;1.90;99.90
18593;DHT22;9426;54.118;17.948;2023-02-15T21:20:59;1.90;99.90
18593;DHT22;9426;54.118;17.948;2023-02-15T21:26:24;1.80;99.90
18593;DHT22;9426;54.118;17.948;2023-02-15T21:31:49;1.80;99.90
18593;DHT22;9426;54.118;17.948;2023-02-15T21:37:26;1.70;99.90
18593;DHT22;9426;54.118;17.948;2023-02-15T21:42:53;1.70;99.90
18593;DHT22;9426;54.118;17.948;2023-02-15T21:48:36;1.70;99.90
18593;DHT22;9426;54.118;17.948;2023-02-15T21:54:00;1.70;99.90
18593;DHT22;9426;54.118;17.948;2023-02-15T21:59:26;1.70;99.90
18593;DHT22;9426;54.118;17.948;2023-02-15T22:04:51;1.70;99.90
18593;DHT22;9426;54.118;17.948;2023-02-15T22:10:15;1.60;99.90
18593;DHT22;9426;54.118;17.948;2023-02-15T22:15:39;1.70;99.90
18593;DHT22;9426;54.118;17.948;2023-02-15T22:21:09;1.60;99.90
18593;DHT22;9426;54.118;17.948;2023-02-15T22:26:34;1.60;99.90
18593;DHT22;9426;54.118;17.948;2023-02-15T22:31:58;1.50;99.90
18593;DHT22;9426;54.118;17.948;2023-02-15T22:37:26;1.50;99.90
18593;DHT22;9426;54.118;17.948;2023-02-15T22:42:53;1.50;99.90
18593;DHT22;9426;54.118;17.948;2023-02-15T22:48:20;1.50;99.90
18593;DHT22;9426;54.118;17.948;2023-02-15T22:53:46;1.40;99.90
18593;DHT22;9426;54.118;17.948;2023-02-15T22:59:16;1.40;99.90
18593;DHT22;9426;54.118;17.948;2023-02-15T23:04:43;1.50;99.90
18593;DHT22;9426;54.118;17.948;2023-02-15T23:10:09;1.40;99.90
18593;DHT22;9426;54.118;17.948;2023-02-15T23:15:44;1.50;99.90
18593;DHT22;9426;54.118;17.948;2023-02-15T23:21:14;1.40;99.90
18593;DHT22;9426;54.118;17.948;2023-02-15T23:26:41;1.40;99.90
18593;DHT22;9426;54.118;17.948;2023-02-15T23:32:11;1.40;99.90
18593;DHT22;9426;54.118;17.948;2023-02-15T23:37:37;1.40;99.90
18593;DHT22;9426;54.118;17.948;2023-02-15T23:43:03;1.40;99.90
18593;DHT22;9426;54.118;17.948;2023-02-15T23:48:33;1.40;99.90
18593;DHT22;9426;54.118;17.948;2023-02-15T23:53:58;1.30;99.90
18593;DHT22;9426;54.118;17.948;2023-02-15T23:59:26;1.30;99.90
